createdAt,value
2022-12-01T00:05:33.601Z,3.97
2022-12-01T00:20:36.789Z,3.98
2022-12-01T00:35:42.000Z,3.87
2022-12-01T00:50:46.025Z,4.02
2022-12-01T01:05:49.402Z,4.06
2022-12-01T01:21:04.548Z,4.03
2022-12-01T01:36:07.977Z,3.99
2022-12-01T01:51:13.443Z,3.94
2022-12-01T02:06:16.943Z,4.04
2022-12-01T02:21:29.073Z,4.24
2022-12-01T02:36:37.450Z,4.18
2022-12-01T02:51:45.144Z,4.10
2022-12-01T03:07:20.300Z,4.12
2022-12-01T03:22:26.805Z,4.09
2022-12-01T03:37:36.930Z,4.02
2022-12-01T03:53:04.764Z,3.94
2022-12-01T04:08:08.217Z,4.00
2022-12-01T04:23:11.412Z,4.04
2022-12-01T04:38:14.667Z,3.94
2022-12-01T04:53:18.214Z,3.93
2022-12-01T05:08:21.493Z,3.98
2022-12-01T05:23:29.658Z,3.99
2022-12-01T05:38:32.788Z,4.03
2022-12-01T05:53:36.563Z,4.07
2022-12-01T06:08:39.839Z,4.11
2022-12-01T06:23:43.078Z,4.02
2022-12-01T06:38:46.250Z,4.06
2022-12-01T06:53:59.746Z,4.11
2022-12-01T07:09:07.352Z,4.12
2022-12-01T07:24:12.967Z,4.18
2022-12-01T07:39:17.454Z,4.22
2022-12-01T07:54:21.526Z,4.28
2022-12-01T08:09:24.733Z,4.48
2022-12-01T08:24:27.953Z,4.47
2022-12-01T08:39:31.667Z,4.58
2022-12-01T08:54:35.157Z,4.75
2022-12-01T09:09:38.650Z,4.92
2022-12-01T09:24:42.466Z,5.22
2022-12-01T09:39:46.336Z,5.57
2022-12-01T09:54:49.982Z,5.90
2022-12-01T10:09:59.833Z,5.86
2022-12-01T10:25:19.284Z,5.63
2022-12-01T10:40:23.559Z,5.43
2022-12-01T10:55:33.283Z,5.59
2022-12-01T11:10:38.399Z,5.45
2022-12-01T11:25:42.117Z,5.36
2022-12-01T11:40:50.786Z,5.36
2022-12-01T11:56:15.364Z,5.33
2022-12-01T12:11:32.292Z,5.39
2022-12-01T12:27:11.838Z,5.35
2022-12-01T12:42:39.432Z,5.36
2022-12-01T12:57:50.320Z,5.38
2022-12-01T13:13:07.131Z,5.26
2022-12-01T13:28:20.948Z,5.04
2022-12-01T13:43:24.341Z,5.06
2022-12-01T13:58:34.149Z,5.16
2022-12-01T14:13:50.847Z,4.99
2022-12-01T14:29:03.570Z,5.04
2022-12-01T14:44:14.450Z,5.12
2022-12-01T14:59:24.774Z,5.26
2022-12-01T15:14:28.469Z,5.26
2022-12-01T15:29:37.470Z,5.14
2022-12-01T15:44:41.120Z,5.18
2022-12-01T15:59:47.058Z,5.20
2022-12-01T16:15:13.387Z,5.21
2022-12-01T16:30:22.824Z,4.93
2022-12-01T16:45:27.051Z,4.60
2022-12-01T17:00:30.896Z,4.61
2022-12-01T17:15:34.994Z,4.57
2022-12-01T17:30:39.476Z,4.59
2022-12-01T17:45:43.373Z,4.39
2022-12-01T18:00:49.417Z,4.33
2022-12-01T18:15:52.973Z,4.18
2022-12-01T18:30:56.493Z,4.13
2022-12-01T18:46:06.348Z,4.07
2022-12-01T19:01:21.375Z,4.15
2022-12-01T19:16:25.008Z,4.15
2022-12-01T19:31:29.484Z,3.87
2022-12-01T19:46:33.758Z,3.75
2022-12-01T20:01:38.004Z,3.63
2022-12-01T20:16:41.728Z,3.51
2022-12-01T20:31:46.086Z,3.32
2022-12-01T20:46:49.393Z,3.08
2022-12-01T21:01:53.376Z,2.90
2022-12-01T21:17:02.685Z,2.76
2022-12-01T21:32:14.248Z,2.84
2022-12-01T21:47:27.465Z,2.84
2022-12-01T22:02:51.811Z,2.73
2022-12-01T22:17:57.065Z,2.53
2022-12-01T22:33:10.999Z,2.48
2022-12-01T22:48:39.095Z,2.49
2022-12-01T23:03:42.274Z,2.48
2022-12-01T23:18:45.876Z,2.51
2022-12-01T23:33:49.276Z,2.46
2022-12-01T23:48:58.487Z,2.38
